Time;durP1;ratioP1;P1;durP2;ratioP2;P2;SDS_P1;SDS_P2;PMS_P1;PMS_P2;Temp;Humidity;BMP_temperature;BMP_pressure;BME280_temperature;BME280_humidity;BME280_pressure;Samples;Min_cycle;Max_cycle;Signal;HPM_P1;HPM_P2
2022/08/24 00:02:04;;;;;;;9.00;3.80;;;;;;;21.60;69.36;101095.48;105855;1264;62303;-71
2022/08/24 00:04:33;;;;;;;9.80;4.10;;;;;;;21.57;69.59;101095.96;105757;1264;61786;-76
2022/08/24 00:07:03;;;;;;;8.50;3.50;;;;;;;21.56;69.62;101096.98;105990;1263;70712;-75
2022/08/24 00:09:35;;;;;;;11.90;4.10;;;;;;;21.56;69.93;101094.17;105983;1264;63934;-75
2022/08/24 00:12:04;;;;;;;8.90;4.40;;;;;;;21.52;69.87;101089.14;105957;1264;64036;-75
2022/08/24 00:14:35;;;;;;;8.80;3.70;;;;;;;21.50;69.98;101083.89;105972;1264;60488;-75
2022/08/24 00:17:04;;;;;;;10.70;3.60;;;;;;;21.50;70.08;101078.09;105988;1264;73453;-76
2022/08/24 00:19:34;;;;;;;9.40;3.60;;;;;;;21.45;69.90;101075.45;105941;1264;72381;-75
2022/08/24 00:22:03;;;;;;;11.00;4.50;;;;;;;21.40;70.04;101075.16;106022;1264;59333;-75
2022/08/24 00:24:32;;;;;;;9.10;3.30;;;;;;;21.36;70.39;101065.02;105970;1262;62644;-73
2022/08/24 00:27:01;;;;;;;11.30;3.90;;;;;;;21.32;70.59;101063.17;106120;1264;58816;-70
2022/08/24 00:29:30;;;;;;;7.70;3.60;;;;;;;21.28;71.10;101058.52;106145;1263;58980;-70
2022/08/24 00:31:59;;;;;;;10.80;4.20;;;;;;;21.23;71.04;101050.33;106098;1263;72954;-72
2022/08/24 00:34:28;;;;;;;8.20;3.80;;;;;;;21.21;71.08;101047.92;106116;1262;62213;-70
2022/08/24 00:36:57;;;;;;;5.90;3.50;;;;;;;21.16;71.50;101042.45;106057;1263;60265;-77
2022/08/24 00:39:27;;;;;;;11.20;3.90;;;;;;;21.12;71.75;101034.59;106039;1263;74021;-72
2022/08/24 00:41:55;;;;;;;10.60;3.70;;;;;;;21.05;71.62;101023.90;106005;1264;63659;-74
2022/08/24 00:44:25;;;;;;;11.30;4.00;;;;;;;21.01;72.21;101018.34;106222;1263;58168;-72
2022/08/24 00:47:15;;;;;;;6.60;3.60;;;;;;;20.97;72.57;101009.39;106228;1264;73665;-76
2022/08/24 00:50:09;;;;;;;10.40;3.40;;;;;;;20.98;72.38;101003.99;105989;1264;71634;-72
2022/08/24 00:52:45;;;;;;;10.80;3.90;;;;;;;20.93;72.99;100998.84;106020;1263;70358;-68
2022/08/24 00:55:28;;;;;;;7.50;3.60;;;;;;;20.92;72.79;100998.23;105934;1264;74575;-72
2022/08/24 00:58:03;;;;;;;10.90;4.20;;;;;;;20.90;73.01;100996.63;105879;1264;62828;-73
2022/08/24 01:00:41;;;;;;;9.70;4.00;;;;;;;20.90;72.99;100994.87;106180;1264;57512;-74
2022/08/24 01:03:17;;;;;;;7.50;3.80;;;;;;;20.85;73.72;100989.77;106047;1264;73837;-75
2022/08/24 01:05:47;;;;;;;7.10;3.50;;;;;;;20.85;73.57;100987.28;106044;1264;62165;-71
2022/08/24 01:08:16;;;;;;;6.60;3.10;;;;;;;20.85;72.84;100982.50;106137;1263;61059;-74
2022/08/24 01:10:51;;;;;;;12.60;3.70;;;;;;;20.83;73.00;100982.58;106117;1264;73252;-75
2022/08/24 01:13:22;;;;;;;7.20;3.30;;;;;;;20.80;72.84;100984.11;106147;1263;59023;-75
2022/08/24 01:15:57;;;;;;;9.00;3.70;;;;;;;20.77;73.60;100978.90;106059;1264;60628;-73
2022/08/24 01:21:40;;;;;;;7.70;3.50;;;;;;;20.73;74.26;100966.39;106005;1263;61389;-74
2022/08/24 01:24:13;;;;;;;6.80;3.10;;;;;;;20.70;75.05;100967.81;106111;1264;70745;-74
2022/08/24 01:26:49;;;;;;;7.20;3.50;;;;;;;20.68;74.22;100963.25;106041;1263;62978;-73
2022/08/24 01:29:24;;;;;;;6.60;3.50;;;;;;;20.63;74.22;100964.99;106035;1263;61511;-70
2022/08/24 01:31:54;;;;;;;7.70;3.60;;;;;;;20.58;74.43;100963.31;105961;1264;59031;-72
2022/08/24 01:34:24;;;;;;;6.70;3.40;;;;;;;20.52;74.45;100962.20;105966;1263;72892;-72
2022/08/24 01:36:55;;;;;;;7.80;3.20;;;;;;;20.45;75.31;100961.16;106041;1262;72796;-72
2022/08/24 01:39:29;;;;;;;8.40;3.80;;;;;;;20.39;75.04;100960.00;106088;1264;59821;-71
2022/08/24 01:41:59;;;;;;;7.20;3.60;;;;;;;20.36;75.31;100959.97;105885;1264;63457;-72
2022/08/24 01:44:34;;;;;;;6.80;2.90;;;;;;;20.34;75.53;100961.60;105661;1264;58963;-71
2022/08/24 01:47:06;;;;;;;7.40;3.30;;;;;;;20.32;75.37;100960.58;105770;1266;57535;-72
2022/08/24 01:49:41;;;;;;;10.00;3.70;;;;;;;20.32;76.72;100962.25;105817;1261;73783;-71
2022/08/24 01:52:18;;;;;;;8.50;3.70;;;;;;;20.34;77.22;100958.23;105934;1264;61742;-72
2022/08/24 01:54:48;;;;;;;7.60;3.20;;;;;;;20.36;76.11;100961.05;105858;1262;69957;-71
2022/08/24 01:57:22;;;;;;;;;;;;;;;20.36;76.44;100961.92;105834;1264;74558;-72
2022/08/24 01:59:52;;;;;;;6.50;3.90;;;;;;;20.37;76.70;100961.60;105703;1263;58805;-71
2022/08/24 02:02:30;;;;;;;7.30;3.60;;;;;;;20.42;76.79;100960.27;105944;1264;57478;-71
2022/08/24 02:05:00;;;;;;;6.60;3.30;;;;;;;20.48;76.28;100958.05;105701;1264;64911;-73
2022/08/24 02:07:31;;;;;;;8.60;3.70;;;;;;;20.54;76.14;100959.18;105876;1264;62131;-72
2022/08/24 02:10:01;;;;;;;8.20;3.60;;;;;;;20.56;76.23;100959.36;105784;1264;59333;-72
2022/08/24 02:12:30;;;;;;;8.90;3.70;;;;;;;20.57;76.69;100957.17;105684;1264;74078;-75
2022/08/24 02:15:01;;;;;;;9.20;4.40;;;;;;;20.53;77.35;100961.77;105808;1263;58830;-73
2022/08/24 02:17:30;;;;;;;8.90;3.80;;;;;;;20.50;77.96;100960.52;106082;1264;58739;-73
2022/08/24 02:20:00;;;;;;;8.40;3.40;;;;;;;20.48;78.23;100957.47;106002;1264;63815;-73
2022/08/24 02:22:29;;;;;;;9.40;4.30;;;;;;;20.48;78.21;100954.45;105824;1262;61766;-71
2022/08/24 02:24:58;;;;;;;4.60;3.50;;;;;;;20.49;78.30;100952.27;106126;1264;60121;-71
2022/08/24 02:27:27;;;;;;;10.80;4.40;;;;;;;20.48;78.23;100951.86;105928;1263;73566;-73
2022/08/24 02:29:56;;;;;;;8.50;3.80;;;;;;;20.46;78.18;100950.06;105969;1264;58874;-75
2022/08/24 02:32:25;;;;;;;7.90;4.10;;;;;;;20.46;78.54;100944.33;105948;1264;57493;-74
2022/08/24 02:34:54;;;;;;;8.80;3.90;;;;;;;20.41;78.84;100938.84;106067;1263;71463;-72
2022/08/24 02:37:23;;;;;;;9.30;3.90;;;;;;;20.34;79.29;100935.39;105975;1264;71289;-74
2022/08/24 02:39:52;;;;;;;8.20;4.00;;;;;;;20.29;79.63;100930.83;105900;1264;69714;-73
2022/08/24 02:42:21;;;;;;;8.60;3.70;;;;;;;20.26;79.24;100933.70;106125;1263;74463;-70
2022/08/24 02:44:50;;;;;;;9.80;4.20;;;;;;;20.21;79.75;100933.38;106176;1263;63522;-72
2022/08/24 02:47:21;;;;;;;9.20;3.70;;;;;;;20.20;79.82;100938.32;106062;1264;59150;-77
2022/08/24 02:50:10;;;;;;;13.90;4.00;;;;;;;20.20;79.82;100940.93;105943;1264;73773;-81
2022/08/24 02:52:41;;;;;;;9.00;4.10;;;;;;;20.19;79.71;100943.08;105962;1264;62276;-75
2022/08/24 02:55:15;;;;;;;8.90;4.10;;;;;;;20.20;79.82;100948.39;105852;1263;70688;-75
2022/08/24 02:57:49;;;;;;;6.80;4.00;;;;;;;20.18;80.14;100950.64;105968;1263;63931;-76
2022/08/24 03:00:21;;;;;;;8.80;4.90;;;;;;;20.14;79.66;100950.92;105977;1264;59169;-76
2022/08/24 03:02:54;;;;;;;10.10;4.60;;;;;;;20.06;79.21;100955.89;105841;1264;60977;-76
2022/08/24 03:05:24;;;;;;;14.00;4.70;;;;;;;19.98;79.42;100954.15;106025;1263;74376;-76
2022/08/24 03:07:55;;;;;;;10.00;3.90;;;;;;;19.88;80.70;100958.84;105942;1263;63879;-76
2022/08/24 03:10:24;;;;;;;10.30;5.10;;;;;;;19.82;81.39;100960.61;105925;1264;72361;-77
2022/08/24 03:12:53;;;;;;;8.90;4.30;;;;;;;19.77;81.97;100962.52;105926;1264;63117;-72
2022/08/24 03:15:28;;;;;;;9.90;4.80;;;;;;;19.72;82.37;100961.28;105990;1264;59105;-72
2022/08/24 03:17:57;;;;;;;9.90;4.50;;;;;;;19.74;82.42;100963.77;106047;1264;61384;-77
2022/08/24 03:20:26;;;;;;;9.20;4.20;;;;;;;19.72;82.28;100967.27;106039;1264;63525;-75
2022/08/24 03:22:57;;;;;;;10.30;4.30;;;;;;;19.68;82.44;100968.27;106074;1263;71407;-77
2022/08/24 03:25:26;;;;;;;7.10;4.10;;;;;;;19.64;81.61;100970.89;106029;1264;61331;-77
2022/08/24 03:27:56;;;;;;;10.80;4.60;;;;;;;19.56;80.90;100974.36;106186;1262;63402;-75
2022/08/24 03:30:25;;;;;;;7.80;4.40;;;;;;;19.45;82.81;100973.41;105987;1264;63524;-75
2022/08/24 03:32:56;;;;;;;7.50;3.90;;;;;;;19.41;81.70;100973.48;105902;1263;59054;-76
2022/08/24 03:35:27;;;;;;;7.00;4.20;;;;;;;19.29;82.09;100970.59;106126;1261;73773;-76
2022/08/24 03:37:56;;;;;;;11.60;4.90;;;;;;;19.23;84.21;100976.95;105941;1264;61357;-76
2022/08/24 03:40:25;;;;;;;10.70;4.60;;;;;;;19.26;84.77;100979.80;105903;1264;59354;-76
2022/08/24 03:42:56;;;;;;;8.40;4.40;;;;;;;19.28;84.74;100979.32;106199;1262;73067;-75
2022/08/24 03:45:28;;;;;;;14.60;4.50;;;;;;;19.32;84.78;100983.01;106253;1261;63546;-74
2022/08/24 03:47:57;;;;;;;8.40;4.30;;;;;;;19.31;84.54;100986.42;106262;1260;61090;-77
2022/08/24 03:50:27;;;;;;;7.50;3.70;;;;;;;19.28;85.05;100983.29;105805;1264;63548;-73
2022/08/24 03:52:56;;;;;;;10.40;4.10;;;;;;;19.27;85.15;100984.44;106076;1263;70595;-74
2022/08/24 03:55:25;;;;;;;11.90;4.40;;;;;;;19.26;84.88;100986.27;106127;1264;59814;-73
2022/08/24 03:57:54;;;;;;;10.30;4.60;;;;;;;19.25;84.99;100983.08;105894;1263;64269;-74
2022/08/24 04:00:23;;;;;;;9.50;4.10;;;;;;;19.27;85.27;100979.52;106089;1261;58421;-75
2022/08/24 04:02:55;;;;;;;10.40;4.70;;;;;;;19.27;85.08;100981.06;106297;1261;59739;-72
2022/08/24 04:05:25;;;;;;;9.30;4.00;;;;;;;19.28;85.18;100980.09;106325;1261;74315;-75
2022/08/24 04:07:54;;;;;;;8.30;4.00;;;;;;;19.31;85.37;100984.13;106215;1261;73247;-78
2022/08/24 04:10:23;;;;;;;7.60;4.00;;;;;;;19.33;84.71;100983.60;106316;1264;61311;-72
2022/08/24 04:12:53;;;;;;;11.90;4.70;;;;;;;19.36;84.05;100983.88;106225;1263;63403;-74
2022/08/24 04:15:23;;;;;;;11.80;4.80;;;;;;;19.36;84.45;100982.82;106344;1261;59123;-75
2022/08/24 04:17:52;;;;;;;7.40;4.10;;;;;;;19.40;84.80;100994.17;106139;1262;61394;-74
2022/08/24 04:20:24;;;;;;;8.50;3.90;;;;;;;19.47;84.64;100992.52;106088;1264;63670;-75
2022/08/24 04:22:53;;;;;;;10.80;4.10;;;;;;;19.58;84.12;100994.97;106106;1264;61794;-76
2022/08/24 04:25:23;;;;;;;7.40;4.40;;;;;;;19.68;83.88;100996.60;106281;1263;61077;-76
2022/08/24 04:27:52;;;;;;;7.40;4.20;;;;;;;19.77;83.49;100996.31;106204;1262;72280;-76
2022/08/24 04:30:23;;;;;;;9.50;5.60;;;;;;;19.88;82.96;100995.90;106281;1262;59172;-76
2022/08/24 04:33:05;;;;;;;14.50;6.70;;;;;;;19.97;83.22;100992.42;106285;1261;58384;-73
2022/08/24 04:35:44;;;;;;;10.40;5.40;;;;;;;20.07;82.17;100987.90;106187;1261;72659;-73
2022/08/24 04:38:18;;;;;;;13.10;4.70;;;;;;;20.18;81.71;100985.92;106072;1264;61477;-75
2022/08/24 04:41:04;;;;;;;14.60;5.60;;;;;;;20.30;81.02;100980.61;105791;1261;70091;-75
2022/08/24 04:43:35;;;;;;;12.80;5.70;;;;;;;20.41;80.80;100980.70;106045;1264;63804;-74
2022/08/24 04:46:08;;;;;;;11.90;5.70;;;;;;;20.52;80.34;100987.08;105884;1262;63199;-72
2022/08/24 04:48:37;;;;;;;11.20;5.70;;;;;;;20.64;79.77;100989.01;105979;1261;62274;-74
2022/08/24 04:51:08;;;;;;;12.60;4.90;;;;;;;20.73;79.00;100989.55;106636;1262;73558;-76
2022/08/24 04:53:41;;;;;;;9.90;5.00;;;;;;;20.85;78.53;100986.75;107003;1263;72231;-74
2022/08/24 04:56:16;;;;;;;8.20;4.20;;;;;;;21.00;77.76;100991.92;106987;1261;70770;-78
2022/08/24 04:58:49;;;;;;;12.00;4.70;;;;;;;21.13;77.06;100997.08;106212;1264;63835;-76
2022/08/24 05:01:23;;;;;;;8.60;5.00;;;;;;;21.12;76.81;100998.30;106039;1261;63000;-75
2022/08/24 05:03:54;;;;;;;10.90;4.50;;;;;;;21.08;76.65;100998.27;105971;1264;61766;-76
2022/08/24 05:06:27;;;;;;;8.40;4.00;;;;;;;21.04;76.92;100995.52;106050;1264;74188;-75
2022/08/24 05:08:57;;;;;;;9.30;4.30;;;;;;;21.01;77.59;100995.17;105950;1264;72741;-76
2022/08/24 05:11:27;;;;;;;10.20;3.90;;;;;;;20.99;77.84;100995.17;106145;1261;60489;-77
2022/08/24 05:13:57;;;;;;;9.50;5.20;;;;;;;21.00;77.21;100994.66;105863;1262;63467;-76
2022/08/24 05:16:26;;;;;;;8.90;4.20;;;;;;;21.01;77.30;100988.88;106090;1263;63130;-72
2022/08/24 05:18:59;;;;;;;11.90;4.30;;;;;;;21.14;76.60;100994.15;106047;1263;58376;-75
2022/08/24 05:21:29;;;;;;;11.90;4.60;;;;;;;21.27;75.57;100997.98;106038;1262;72960;-77
2022/08/24 05:23:59;;;;;;;14.50;4.30;;;;;;;21.37;75.43;100997.04;106062;1261;72723;-76
2022/08/24 05:26:30;;;;;;;10.70;3.80;;;;;;;21.54;74.24;100992.88;105965;1264;71041;-76
2022/08/24 05:29:01;;;;;;;13.70;4.40;;;;;;;21.65;72.96;100996.31;106063;1264;74666;-78
2022/08/24 05:31:48;;;;;;;13.50;4.50;;;;;;;21.72;72.16;100993.26;106055;1264;58976;-78
2022/08/24 05:34:20;;;;;;;13.60;4.20;;;;;;;21.82;71.97;100990.30;106359;1264;61428;-76
2022/08/24 05:36:52;;;;;;;13.80;4.90;;;;;;;21.88;71.88;100988.59;106148;1266;63679;-74
2022/08/24 05:40:07;;;;;;;13.60;4.40;;;;;;;21.96;71.99;100987.23;105812;1264;72418;-73
2022/08/24 05:42:38;;;;;;;14.30;4.60;;;;;;;22.09;71.63;100985.25;105949;1264;69723;-71
2022/08/24 05:45:09;;;;;;;18.50;4.90;;;;;;;22.17;71.38;100988.42;105888;1264;74510;-71
2022/08/24 05:47:38;;;;;;;14.90;5.00;;;;;;;22.30;70.56;100990.59;106145;1264;62868;-74
2022/08/24 05:50:20;;;;;;;9.10;4.20;;;;;;;22.42;69.69;100996.98;105938;1264;61178;-76
2022/08/24 05:52:53;;;;;;;11.10;3.80;;;;;;;22.59;69.24;101001.13;105882;1264;62785;-78
2022/08/24 05:55:24;;;;;;;14.60;4.50;;;;;;;22.70;68.75;101003.38;105758;1264;62432;-79
2022/08/24 05:57:55;;;;;;;10.20;4.00;;;;;;;22.83;67.77;101009.42;105643;1264;70345;-76
2022/08/24 06:00:30;;;;;;;14.40;5.10;;;;;;;22.90;67.32;101006.17;105724;1264;74707;-75
2022/08/24 06:03:04;;;;;;;14.00;4.20;;;;;;;22.96;67.69;101006.33;105710;1264;62279;-75
2022/08/24 06:05:43;;;;;;;10.80;5.00;;;;;;;23.09;67.32;101005.55;105696;1266;61041;-75
2022/08/24 06:08:15;;;;;;;9.50;3.70;;;;;;;23.21;66.97;101008.65;105558;1267;63142;-76
2022/08/24 06:10:47;;;;;;;11.40;4.20;;;;;;;23.40;65.37;101009.02;105488;1264;73395;-74
2022/08/24 06:13:16;;;;;;;10.90;4.50;;;;;;;23.47;65.56;101010.20;105786;1265;69962;-76
2022/08/24 06:15:45;;;;;;;12.90;4.50;;;;;;;23.55;64.86;101008.08;106010;1264;63451;-74
2022/08/24 06:18:35;;;;;;;16.70;4.70;;;;;;;23.64;64.58;101005.54;106078;1263;58513;-75
2022/08/24 06:21:11;;;;;;;10.80;3.60;;;;;;;23.79;64.28;101009.59;105987;1264;61363;-74
2022/08/24 06:23:46;;;;;;;11.70;3.60;;;;;;;23.94;63.04;101005.99;105994;1264;63650;-73
2022/08/24 06:29:09;;;;;;;13.60;4.00;;;;;;;24.24;61.67;101003.05;105979;1263;70142;-72
2022/08/24 06:31:45;;;;;;;14.00;4.20;;;;;;;24.36;60.20;101002.63;106176;1264;74896;-74
2022/08/24 06:34:24;;;;;;;12.20;3.60;;;;;;;24.48;59.80;100995.36;106104;1263;58599;-73
2022/08/24 06:36:54;;;;;;;8.30;3.30;;;;;;;24.63;58.86;100995.99;106096;1263;61234;-72
2022/08/24 06:39:24;;;;;;;8.60;3.20;;;;;;;24.72;58.23;100987.33;106270;1263;62926;-73
2022/08/24 06:41:54;;;;;;;12.20;3.90;;;;;;;24.85;58.24;100985.85;106166;1264;63656;-71
2022/08/24 06:44:31;;;;;;;17.30;3.80;;;;;;;25.00;57.70;100982.40;106167;1263;60084;-75
2022/08/24 06:47:07;;;;;;;13.50;4.00;;;;;;;25.17;57.62;100984.64;106149;1263;64996;-75
2022/08/24 06:49:36;;;;;;;12.70;4.00;;;;;;;25.30;57.48;100988.90;106187;1263;58940;-73
2022/08/24 06:52:06;;;;;;;16.10;3.60;;;;;;;25.46;57.22;100993.81;105868;1264;60551;-72
2022/08/24 06:54:35;;;;;;;13.80;4.00;;;;;;;25.56;56.69;100991.66;105917;1264;75778;-72
2022/08/24 06:57:05;;;;;;;22.70;4.50;;;;;;;25.65;56.52;100991.68;106036;1264;72287;-72
2022/08/24 06:59:34;;;;;;;14.30;4.20;;;;;;;25.73;56.19;100980.88;106079;1264;60647;-73
2022/08/24 07:02:03;;;;;;;20.80;4.70;;;;;;;25.83;55.42;100982.39;106089;1264;63384;-80
2022/08/24 07:04:36;;;;;;;20.60;5.00;;;;;;;25.89;55.41;100977.58;107164;1262;59014;-85
2022/08/24 07:07:23;;;;;;;23.40;4.20;;;;;;;26.01;55.39;100971.27;107193;1264;58936;-85
2022/08/24 07:09:54;;;;;;;19.30;4.70;;;;;;;26.16;55.56;100972.35;107225;1263;62269;-83
2022/08/24 07:12:26;;;;;;;24.90;4.60;;;;;;;26.31;54.53;100971.19;106787;1264;61819;-84
2022/08/24 07:14:57;;;;;;;30.20;5.10;;;;;;;26.37;54.02;100972.09;106889;1264;59919;-83
2022/08/24 07:17:28;;;;;;;25.70;4.90;;;;;;;26.45;53.88;100967.45;107039;1263;73234;-83
2022/08/24 07:19:57;;;;;;;20.50;4.50;;;;;;;26.57;53.79;100967.95;106880;1266;59642;-78
2022/08/24 07:22:45;;;;;;;25.50;4.80;;;;;;;26.63;52.97;100960.20;106887;1264;58702;-86
2022/08/24 07:25:15;;;;;;;30.20;5.70;;;;;;;26.75;52.88;100962.46;107033;1264;63067;-84
2022/08/24 07:27:44;;;;;;;26.50;5.40;;;;;;;26.87;52.01;100961.46;107775;1262;60959;-86
2022/08/24 07:30:13;;;;;;;28.80;4.90;;;;;;;26.95;51.28;100957.61;107948;1264;59115;-85
2022/08/24 07:33:50;;;;;;;22.40;5.30;;;;;;;27.07;51.00;100951.14;107970;1266;73306;-87
2022/08/24 07:36:44;;;;;;;34.80;4.80;;;;;;;27.11;49.95;100956.45;107330;1267;62309;-80
2022/08/24 07:39:13;;;;;;;26.40;4.60;;;;;;;27.17;49.42;100952.71;105680;1267;62118;-79
2022/08/24 07:41:44;;;;;;;38.20;5.80;;;;;;;27.21;49.41;100951.24;105871;1267;63038;-78
2022/08/24 07:44:34;;;;;;;30.80;4.70;;;;;;;27.33;48.61;100954.55;105754;1267;61813;-75
2022/08/24 07:47:04;;;;;;;39.80;6.30;;;;;;;27.39;47.82;100955.02;105652;1267;59387;-78
2022/08/24 07:50:40;;;;;;;37.10;6.10;;;;;;;27.42;47.20;100958.88;106226;1267;63343;-87
2022/08/24 07:53:47;;;;;;;27.50;5.10;;;;;;;27.53;47.02;100952.00;107069;1270;59439;-86
2022/08/24 07:56:42;;;;;;;31.80;5.40;;;;;;;27.60;46.35;100951.58;106183;1270;59192;-78
2022/08/24 07:59:11;;;;;;;39.10;5.40;;;;;;;27.68;46.06;100947.98;105807;1273;62382;-77
2022/08/24 08:01:41;;;;;;;37.90;6.20;;;;;;;27.71;45.87;100948.02;105733;1273;61027;-83
2022/08/24 08:04:13;;;;;;;35.60;6.40;;;;;;;27.77;45.40;100949.05;105774;1270;69832;-77
2022/08/24 08:06:42;;;;;;;28.00;5.50;;;;;;;27.82;44.73;100943.68;105816;1270;74618;-81
2022/08/24 08:09:11;;;;;;;34.60;5.80;;;;;;;27.93;45.00;100945.09;105782;1270;57502;-83
2022/08/24 08:11:41;;;;;;;30.50;5.80;;;;;;;28.06;44.36;100946.09;105520;1272;62009;-81
2022/08/24 08:14:13;;;;;;;23.30;5.00;;;;;;;28.17;43.56;100940.70;105874;1270;62295;-81
2022/08/24 08:16:42;;;;;;;32.30;5.20;;;;;;;28.25;43.11;100937.73;106263;1270;62154;-81
2022/08/24 08:19:11;;;;;;;30.00;5.40;;;;;;;28.25;42.65;100937.36;105889;1270;59394;-79
2022/08/24 08:24:54;;;;;;;30.10;5.30;;;;;;;28.34;41.66;100933.02;105982;1269;59199;-76
2022/08/24 08:27:24;;;;;;;32.70;5.50;;;;;;;28.44;41.79;100933.00;105747;1270;58677;-75
2022/08/24 08:29:53;;;;;;;39.10;6.10;;;;;;;28.59;41.39;100935.33;105616;1270;64930;-76
2022/08/24 08:32:22;;;;;;;33.10;6.30;;;;;;;28.66;40.74;100934.73;105899;1267;72661;-80
2022/08/24 08:34:51;;;;;;;30.20;5.80;;;;;;;28.66;40.52;100931.23;105946;1264;60003;-78
2022/08/24 08:37:20;;;;;;;27.10;5.20;;;;;;;28.70;39.81;100928.41;105890;1267;62592;-77
2022/08/24 08:39:55;;;;;;;28.60;5.40;;;;;;;28.82;39.16;100922.23;106069;1266;61486;-79
2022/08/24 08:43:05;;;;;;;36.30;5.10;;;;;;;28.86;39.08;100921.11;106007;1267;61425;-80
2022/08/24 08:50:07;;;;;;;22.90;4.70;;;;;;;28.96;38.20;100920.93;106315;1263;72083;-77
2022/08/24 08:53:03;;;;;;;21.40;4.50;;;;;;;29.04;38.18;100922.52;106149;1264;70879;-77
2022/08/24 08:55:32;;;;;;;28.00;5.00;;;;;;;29.12;38.32;100918.02;106189;1266;63027;-73
2022/08/24 08:58:32;;;;;;;29.30;5.50;;;;;;;29.26;38.23;100921.09;106190;1265;60687;-75
2022/08/24 09:02:02;;;;;;;27.10;5.20;;;;;;;29.48;37.69;100922.27;106169;1266;59679;-74
2022/08/24 09:05:10;;;;;;;22.60;5.60;;;;;;;29.55;35.99;100920.14;105802;1267;63970;-77
2022/08/24 09:08:33;;;;;;;26.90;5.10;;;;;;;29.69;35.39;100918.11;106225;1265;71960;-79
2022/08/24 09:11:45;;;;;;;27.90;6.50;;;;;;;29.61;35.27;100919.73;106071;1267;59987;-80
2022/08/24 09:14:34;;;;;;;26.00;5.00;;;;;;;29.73;35.09;100918.95;106244;1264;62502;-79
2022/08/24 09:17:22;;;;;;;23.40;5.60;;;;;;;29.80;35.72;100915.52;106215;1264;60043;-79
2022/08/24 09:20:04;;;;;;;22.80;5.10;;;;;;;29.99;36.31;100917.84;106183;1263;60643;-78
2022/08/24 09:22:42;;;;;;;;;;;;;;;30.20;35.24;100916.75;105999;1267;64404;-79
2022/08/24 09:25:49;;;;;;;22.10;4.60;;;;;;;30.09;34.30;100905.71;105918;1264;70388;-80
2022/08/24 09:28:48;;;;;;;27.30;5.40;;;;;;;30.36;34.82;100907.66;105981;1264;70536;-80
2022/08/24 09:31:52;;;;;;;30.10;5.40;;;;;;;30.64;34.70;100904.09;106106;1264;74739;-79
2022/08/24 09:34:58;;;;;;;25.10;5.50;;;;;;;30.81;34.72;100906.23;106130;1264;59499;-78
2022/08/24 09:38:12;;;;;;;24.60;5.50;;;;;;;30.60;32.57;100904.45;106006;1264;57895;-78
2022/08/24 09:41:52;;;;;;;19.70;4.70;;;;;;;30.72;33.51;100902.22;105623;1264;63951;-77
2022/08/24 09:45:04;;;;;;;21.50;5.30;;;;;;;31.15;33.22;100897.06;105798;1267;72481;-82
2022/08/24 09:48:23;;;;;;;21.60;4.80;;;;;;;31.36;32.39;100893.02;106087;1263;71094;-81
2022/08/24 09:51:36;;;;;;;21.60;5.60;;;;;;;31.64;32.74;100889.38;105487;1270;73978;-78
2022/08/24 09:54:30;;;;;;;17.40;5.60;;;;;;;31.64;33.00;100890.36;105509;1270;61305;-80
2022/08/24 09:57:20;;;;;;;18.30;5.20;;;;;;;31.52;32.48;100887.84;106152;1264;61984;-79
2022/08/24 10:00:26;;;;;;;21.40;5.00;;;;;;;31.41;31.89;100889.06;106034;1267;75116;-78
2022/08/24 10:03:13;;;;;;;21.00;5.00;;;;;;;31.36;31.20;100882.08;106180;1264;62138;-81
2022/08/24 10:06:30;;;;;;;19.80;5.10;;;;;;;31.29;31.29;100886.93;106124;1264;69887;-80
2022/08/24 10:09:52;;;;;;;19.50;5.10;;;;;;;31.35;30.49;100891.77;105998;1263;74379;-80
2022/08/24 10:12:45;;;;;;;25.60;5.20;;;;;;;31.32;31.10;100889.73;105918;1264;59733;-79
2022/08/24 10:15:35;;;;;;;22.30;5.40;;;;;;;31.50;31.07;100888.67;106189;1264;59726;-77
2022/08/24 10:18:16;;;;;;;25.00;5.50;;;;;;;31.55;31.64;100889.73;106092;1263;63175;-78
2022/08/24 10:21:03;;;;;;;21.20;5.10;;;;;;;31.73;31.70;100889.05;106269;1263;61789;-79
2022/08/24 10:24:19;;;;;;;20.20;6.10;;;;;;;31.95;30.75;100888.95;106103;1264;60177;-79
2022/08/24 10:27:06;;;;;;;24.00;5.30;;;;;;;32.34;30.43;100881.83;106002;1263;73350;-78
2022/08/24 10:30:15;;;;;;;26.20;5.70;;;;;;;32.62;30.23;100877.36;105913;1264;60505;-75
2022/08/24 10:33:19;;;;;;;21.30;4.80;;;;;;;32.89;29.76;100877.90;106280;1264;59699;-74
2022/08/24 10:36:03;;;;;;;16.00;5.00;;;;;;;33.11;28.97;100874.98;105961;1264;64319;-78
2022/08/24 10:41:58;;;;;;;25.30;5.80;;;;;;;33.70;28.88;100877.99;106005;1263;70435;-81
2022/08/24 10:45:04;;;;;;;19.50;5.10;;;;;;;33.28;28.03;100876.45;106140;1263;72897;-80
2022/08/24 10:47:35;;;;;;;16.30;4.90;;;;;;;33.69;27.76;100863.52;105674;1263;61628;-79
2022/08/24 10:50:29;;;;;;;19.20;4.80;;;;;;;34.01;27.98;100864.16;106176;1263;58027;-82
2022/08/24 10:53:31;;;;;;;25.70;5.00;;;;;;;34.06;26.35;100866.15;106123;1264;73553;-80
2022/08/24 10:56:10;;;;;;;21.70;5.20;;;;;;;34.02;25.59;100867.75;106188;1262;72897;-79
2022/08/24 10:59:10;;;;;;;21.80;4.50;;;;;;;34.10;26.11;100859.50;106416;1264;60003;-81
2022/08/24 11:02:30;;;;;;;25.00;4.90;;;;;;;34.06;26.01;100860.33;106308;1265;73186;-83
2022/08/24 11:05:07;;;;;;;21.80;5.10;;;;;;;34.25;25.00;100860.07;106370;1263;60374;-83
2022/08/24 11:08:01;;;;;;;28.00;5.40;;;;;;;34.29;25.34;100862.04;106439;1263;58637;-80
2022/08/24 11:10:38;;;;;;;19.70;4.80;;;;;;;34.37;25.48;100862.51;106220;1263;74621;-80
2022/08/24 11:13:16;;;;;;;20.10;4.70;;;;;;;34.42;25.12;100860.58;106166;1266;62126;-80
2022/08/24 11:15:50;;;;;;;26.90;5.50;;;;;;;34.64;24.60;100862.94;106441;1264;59349;-80
2022/08/24 11:18:21;;;;;;;22.60;5.40;;;;;;;34.82;24.66;100863.15;106266;1264;64615;-81
2022/08/24 11:20:56;;;;;;;26.80;5.30;;;;;;;34.92;24.06;100860.89;106169;1264;61697;-79
2022/08/24 11:23:35;;;;;;;25.30;5.70;;;;;;;35.04;23.69;100862.48;105917;1264;62069;-78
2022/08/24 11:26:18;;;;;;;20.30;5.00;;;;;;;35.26;23.50;100857.11;106195;1265;65886;-79
2022/08/24 11:28:58;;;;;;;26.10;5.40;;;;;;;35.17;23.85;100861.30;106251;1264;71637;-76
2022/08/24 11:31:38;;;;;;;30.60;5.50;;;;;;;35.18;24.02;100856.31;106312;1263;71183;-80
2022/08/24 11:34:14;;;;;;;24.80;5.60;;;;;;;35.23;23.93;100857.30;106220;1263;74420;-79
2022/08/24 11:36:44;;;;;;;26.60;5.50;;;;;;;35.84;23.95;100853.12;106063;1264;62842;-79
2022/08/24 11:39:29;;;;;;;32.50;6.10;;;;;;;35.93;24.01;100851.59;106312;1267;59661;-79
2022/08/24 11:42:08;;;;;;;30.30;5.80;;;;;;;35.87;23.42;100850.13;106219;1264;65540;-81
2022/08/24 11:44:59;;;;;;;35.40;5.20;;;;;;;35.71;23.41;100846.08;105293;1264;1374289;-78
2022/08/24 11:48:15;;;;;;;33.30;6.20;;;;;;;35.90;23.47;100848.48;106172;1264;60947;-81
2022/08/24 11:51:29;;;;;;;30.40;6.20;;;;;;;36.25;23.13;100847.02;106194;1263;62776;-81
2022/08/24 11:54:10;;;;;;;33.30;6.50;;;;;;;36.50;23.05;100841.16;106154;1264;59609;-77
2022/08/24 11:57:08;;;;;;;32.30;6.00;;;;;;;36.92;22.69;100836.55;106037;1263;59671;-77
2022/08/24 12:00:00;;;;;;;30.50;5.60;;;;;;;37.14;22.02;100841.63;106134;1264;64369;-76
2022/08/24 12:03:41;;;;;;;30.30;6.10;;;;;;;36.90;21.89;100839.50;106342;1263;71292;-79
2022/08/24 12:06:25;;;;;;;31.30;6.20;;;;;;;37.45;20.91;100843.64;106708;1263;60711;-80
2022/08/24 12:09:20;;;;;;;35.20;6.20;;;;;;;37.45;20.48;100845.05;107627;1263;64784;-88
2022/08/24 12:23:24;;;;;;;30.20;5.50;;;;;;;37.61;20.42;100843.39;105680;1273;63713;-81
2022/08/24 12:32:04;;;;;;;32.30;5.20;;;;;;;38.39;19.60;100837.27;106383;1276;59701;-82
2022/08/24 12:51:02;;;;;;;33.90;6.20;;;;;;;38.15;18.87;100844.44;106180;1279;64950;-85
2022/08/24 12:54:58;;;;;;;;;;;;;;;;;;;;;
2022/08/24 12:59:22;;;;;;;36.80;5.70;;;;;;;38.67;17.82;100847.70;105135;1286;70756;-83
2022/08/24 13:02:23;;;;;;;38.80;5.80;;;;;;;38.96;17.71;100847.47;104691;1287;75260;-81